Phoenix, AZ

9:37 PM MST on August 28, 2015 (GMT -0700)
28th St. and Osborn rd. | | Change Station
CLOSE
Current Station
Personal Weather Station
Location: Phoenix, AZ
Elevation: 1161 ft
Nearby Weather Stations

Elev 1161 ft 33.49 °N, 112.02 °W | Updated 6 minutes ago

Partly Cloudy
Partly Cloudy
88.5 °F
Feels Like 89 °F
N
0.0
Wind Variable Wind from NNW

Today
High -- | Low -- °F
--% Chance of Precip.
Yesterday
High -- | Low -- °F
Precip. -- in
5:59 AM 6:58 PM
Waxing Gibbous, 99% visible
Pressure 29.72 in
Visibility 10.0 miles
Clouds Few 10000 ft
Scattered Clouds 20000 ft
Heat Index 89 °F
Dew Point 61 °F
Humidity 40%
Rainfall 0.00 in
Snow Depth Not available.
UV 0 out of 12
Pollen 5.00 out of 12
Air Quality Not available.
Flu Activity Not available.
METAR KPHX 290351Z 24003KT 10SM FEW100 SCT200 37/13 A2978 RMK AO2 SLP062 T03720133
Pressure 29.72 in
Visibility 10.0 miles
Clouds Few 10000 ft
Scattered Clouds 20000 ft
Heat Index 89 °F
Dew Point 61 °F
Humidity 40%
Rainfall 0.00 in
Snow Depth Not available.
UV 0 out of 12
Pollen 5.00 out of 12
Air Quality Not available.
Flu Activity Not available.
METAR KPHX 290351Z 24003KT 10SM FEW100 SCT200 37/13 A2978 RMK AO2 SLP062 T03720133

10-Day Weather Forecast

×

Almanac

Astronomy

Aug. 28, 2015 Rise Set
Actual Time
Civil Twilight
Nautical Twilight
Astronomical Twilight
Moon
Length of Visible Light
Length of Day
Tomorrow will be .
, % of the Moon is Illuminated

Today's Extremes

State Highs State Lows

Community

WunderPhotos

Upload Photos

1,850,614 photos uploaded!

WunderBlogs® & News

Nearby

Air Quality

  Air Quality AQ Index Pollutant
Not available.

Snow Depth

Station Depth Elevation

Earthquake Activity

City Distance Mag. Time & Date
Minimum magnitude displayed is 2.5.

Coastal Water Temperatures

Place Temperature

Stations

Nearby Weather Stations

Station Location Temp. Windchill Dew Point Humidity Wind Precip. Elev Updated Type